createdAt,value
2023-02-09T00:00:17.173Z,-6.84
2023-02-09T00:01:17.202Z,-6.87
2023-02-09T00:02:17.200Z,-6.93
2023-02-09T00:03:17.148Z,-6.97
2023-02-09T00:04:17.134Z,-7.00
2023-02-09T00:05:17.099Z,-7.07
2023-02-09T00:06:17.171Z,-7.11
2023-02-09T00:07:17.083Z,-6.97
2023-02-09T00:08:17.102Z,-6.92
2023-02-09T00:09:17.070Z,-6.87
2023-02-09T00:10:17.053Z,-6.76
2023-02-09T00:11:17.064Z,-6.66
2023-02-09T00:12:17.026Z,-6.60
2023-02-09T00:13:17.049Z,-6.56
2023-02-09T00:14:17.615Z,-6.54
2023-02-09T00:15:17.002Z,-6.53
2023-02-09T00:16:17.101Z,-6.54
2023-02-09T00:17:17.008Z,-6.60
2023-02-09T00:18:16.980Z,-6.69
2023-02-09T00:19:16.946Z,-6.74
2023-02-09T00:20:16.961Z,-6.81
2023-02-09T00:21:16.973Z,-6.90
2023-02-09T00:22:16.925Z,-6.92
2023-02-09T00:23:16.898Z,-6.75
2023-02-09T00:24:16.920Z,-6.65
2023-02-09T00:25:16.909Z,-6.50
2023-02-09T00:26:16.910Z,-6.41
2023-02-09T00:27:16.859Z,-6.42
2023-02-09T00:28:16.901Z,-6.42
2023-02-09T00:29:16.856Z,-6.44
2023-02-09T00:30:16.870Z,-6.46
2023-02-09T00:31:16.964Z,-6.52
2023-02-09T00:32:16.845Z,-6.56
2023-02-09T00:33:16.797Z,-6.61
2023-02-09T00:34:16.808Z,-6.66
2023-02-09T00:35:16.793Z,-6.74
2023-02-09T00:36:16.819Z,-6.68
2023-02-09T00:37:16.766Z,-6.61
2023-02-09T00:38:16.767Z,-6.56
2023-02-09T00:39:16.743Z,-6.49
2023-02-09T00:40:16.736Z,-6.44
2023-02-09T00:41:16.749Z,-6.44
2023-02-09T00:42:16.724Z,-6.41
2023-02-09T00:43:16.709Z,-6.41
2023-02-09T00:44:16.702Z,-6.41
2023-02-09T00:45:16.679Z,-6.46
2023-02-09T00:46:16.735Z,-6.49
2023-02-09T00:47:16.689Z,-6.50
2023-02-09T00:48:16.634Z,-6.53
2023-02-09T00:49:16.666Z,-6.60
2023-02-09T00:50:16.648Z,-6.71
2023-02-09T00:51:16.663Z,-6.86
2023-02-09T00:52:16.627Z,-6.93
2023-02-09T00:53:16.640Z,-6.92
2023-02-09T00:54:16.586Z,-6.92
2023-02-09T00:55:16.573Z,-6.93
2023-02-09T00:56:16.596Z,-6.93
2023-02-09T00:57:16.532Z,-6.92
2023-02-09T00:58:16.539Z,-6.99
2023-02-09T00:59:16.530Z,-7.10
2023-02-09T01:00:16.520Z,-7.23
2023-02-09T01:01:16.603Z,-7.33
2023-02-09T01:02:16.510Z,-7.42
2023-02-09T01:03:16.499Z,-7.50
2023-02-09T01:04:16.494Z,-7.54
2023-02-09T01:05:16.485Z,-7.61
2023-02-09T01:06:16.499Z,-7.67
2023-02-09T01:07:16.429Z,-7.78
2023-02-09T01:08:16.439Z,-7.85
2023-02-09T01:09:16.439Z,-7.83
2023-02-09T01:10:16.431Z,-7.75
2023-02-09T01:11:16.436Z,-7.65
2023-02-09T01:12:16.393Z,-7.63
2023-02-09T01:13:16.387Z,-7.72
2023-02-09T01:14:16.366Z,-7.75
2023-02-09T01:15:16.353Z,-7.74
2023-02-09T01:16:16.438Z,-7.68
2023-02-09T01:17:16.331Z,-7.65
2023-02-09T01:18:16.327Z,-7.75
2023-02-09T01:19:16.322Z,-7.82
2023-02-09T01:20:16.302Z,-7.82
2023-02-09T01:21:16.348Z,-7.75
2023-02-09T01:22:16.303Z,-7.65
2023-02-09T01:23:16.288Z,-7.70
2023-02-09T01:24:16.285Z,-7.71
2023-02-09T01:25:16.249Z,-7.72
2023-02-09T01:26:16.276Z,-7.70
2023-02-09T01:27:16.239Z,-7.65
2023-02-09T01:28:16.278Z,-7.63
2023-02-09T01:29:16.213Z,-7.63
2023-02-09T01:30:16.199Z,-7.71
2023-02-09T01:31:16.281Z,-7.81
2023-02-09T01:32:16.158Z,-7.81
2023-02-09T01:33:16.157Z,-7.74
2023-02-09T01:34:16.158Z,-7.71
2023-02-09T01:35:16.128Z,-7.71
2023-02-09T01:36:16.164Z,-7.68
2023-02-09T01:37:16.143Z,-7.61
2023-02-09T01:38:16.146Z,-7.56
2023-02-09T01:39:16.111Z,-7.58
2023-02-09T01:40:16.087Z,-7.61
2023-02-09T01:41:16.112Z,-7.67
2023-02-09T01:42:16.059Z,-7.72
2023-02-09T01:43:16.059Z,-7.82
2023-02-09T01:44:16.045Z,-7.81
2023-02-09T01:45:16.046Z,-7.75
2023-02-09T01:46:16.102Z,-7.68
2023-02-09T01:47:16.025Z,-7.60
2023-02-09T01:48:16.014Z,-7.58
2023-02-09T01:49:16.004Z,-7.65
2023-02-09T01:50:15.988Z,-7.72
2023-02-09T01:51:16.010Z,-7.71
2023-02-09T01:52:15.983Z,-7.67
2023-02-09T01:53:15.946Z,-7.72
2023-02-09T01:54:15.954Z,-7.83
2023-02-09T01:55:15.944Z,-7.92
2023-02-09T01:56:16.006Z,-7.97
2023-02-09T01:57:15.912Z,-7.96
2023-02-09T01:58:15.930Z,-7.93
2023-02-09T01:59:15.894Z,-8.05
2023-02-09T02:00:15.881Z,-8.08
2023-02-09T02:01:15.934Z,-8.21
2023-02-09T02:02:15.908Z,-8.18
2023-02-09T02:03:15.845Z,-8.13
2023-02-09T02:04:15.836Z,-8.18
2023-02-09T02:05:15.820Z,-8.21
2023-02-09T02:06:15.857Z,-8.19
2023-02-09T02:07:15.806Z,-8.28
2023-02-09T02:08:15.818Z,-8.32
2023-02-09T02:09:15.788Z,-8.25
2023-02-09T02:10:15.775Z,-8.23
2023-02-09T02:11:15.808Z,-8.23
2023-02-09T02:12:15.753Z,-8.32
2023-02-09T02:13:15.731Z,-8.42
2023-02-09T02:14:15.724Z,-8.43
2023-02-09T02:15:15.720Z,-8.40
2023-02-09T02:16:15.843Z,-8.36
2023-02-09T02:17:15.684Z,-8.34
2023-02-09T02:18:15.683Z,-8.34
2023-02-09T02:19:15.666Z,-8.42
2023-02-09T02:20:15.646Z,-8.29
2023-02-09T02:21:15.694Z,-8.07
2023-02-09T02:22:15.639Z,-7.85
2023-02-09T02:23:15.617Z,-7.75
2023-02-09T02:24:15.663Z,-7.67
2023-02-09T02:25:15.617Z,-7.61
2023-02-09T02:26:15.630Z,-7.58
2023-02-09T02:27:15.598Z,-7.60
2023-02-09T02:28:15.609Z,-7.67
2023-02-09T02:29:15.562Z,-7.70
2023-02-09T02:30:15.550Z,-7.82
2023-02-09T02:31:15.746Z,-7.89
2023-02-09T02:32:15.541Z,-7.91
2023-02-09T02:33:15.502Z,-7.91
2023-02-09T02:34:15.513Z,-7.92
2023-02-09T02:35:15.477Z,-7.96
2023-02-09T02:36:15.510Z,-7.93
2023-02-09T02:37:15.462Z,-7.85
2023-02-09T02:38:15.463Z,-7.70
2023-02-09T02:39:15.465Z,-7.61
2023-02-09T02:40:15.436Z,-7.54
2023-02-09T02:41:15.457Z,-7.63
2023-02-09T02:42:15.406Z,-7.68
2023-02-09T02:43:15.422Z,-7.72
2023-02-09T02:44:15.398Z,-7.74
2023-02-09T02:45:15.395Z,-7.75
2023-02-09T02:46:15.469Z,-7.74
2023-02-09T02:47:15.375Z,-7.78
2023-02-09T02:48:15.368Z,-7.82
2023-02-09T02:49:15.384Z,-7.85
2023-02-09T02:50:15.338Z,-7.85
2023-02-09T02:51:15.372Z,-7.89
2023-02-09T02:52:15.305Z,-7.91
2023-02-09T02:53:15.308Z,-7.89
2023-02-09T02:54:15.295Z,-7.89
2023-02-09T02:55:15.301Z,-7.93
2023-02-09T02:56:15.274Z,-7.92
2023-02-09T02:57:15.300Z,-7.92
2023-02-09T02:58:15.278Z,-7.96
2023-02-09T02:59:15.242Z,-7.93
2023-02-09T03:00:15.221Z,-7.93
2023-02-09T03:01:15.253Z,-8.05
2023-02-09T03:02:15.254Z,-8.11
2023-02-09T03:03:15.193Z,-8.21
2023-02-09T03:04:15.195Z,-8.21
2023-02-09T03:05:15.178Z,-8.18
2023-02-09T03:06:15.149Z,-8.16
2023-02-09T03:07:15.191Z,-8.19
2023-02-09T03:08:15.146Z,-8.21
2023-02-09T03:09:15.189Z,-8.26
2023-02-09T03:10:15.117Z,-8.28
2023-02-09T03:11:15.117Z,-8.29
2023-02-09T03:12:15.155Z,-8.34
2023-02-09T03:13:15.092Z,-8.36
2023-02-09T03:14:15.074Z,-8.36
2023-02-09T03:15:15.080Z,-8.32
2023-02-09T03:16:15.122Z,-8.21
2023-02-09T03:17:15.095Z,-8.11
2023-02-09T03:18:15.054Z,-8.08
2023-02-09T03:19:15.063Z,-8.05
2023-02-09T03:20:15.010Z,-8.04
2023-02-09T03:21:14.996Z,-8.03
2023-02-09T03:22:15.058Z,-7.99
2023-02-09T03:23:14.988Z,-7.65
2023-02-09T03:24:14.962Z,-7.44
2023-02-09T03:25:14.993Z,-7.32
2023-02-09T03:26:14.952Z,-7.31
2023-02-09T03:27:14.996Z,-7.31
2023-02-09T03:28:14.964Z,-7.04
2023-02-09T03:29:14.935Z,-6.76
2023-02-09T03:30:14.926Z,-6.49
2023-02-09T03:31:15.013Z,-6.38
2023-02-09T03:32:14.939Z,-6.36
2023-02-09T03:33:14.871Z,-5.99
2023-02-09T03:34:14.857Z,-5.72
2023-02-09T03:35:14.843Z,-5.72
2023-02-09T03:36:14.834Z,-5.60
2023-02-09T03:37:14.875Z,-5.51
2023-02-09T03:38:14.799Z,-5.56
2023-02-09T03:39:14.825Z,-5.60
2023-02-09T03:40:14.819Z,-5.47
2023-02-09T03:41:14.806Z,-5.47
2023-02-09T03:42:14.821Z,-5.42
2023-02-09T03:43:14.778Z,-5.35
2023-02-09T03:44:14.753Z,-5.38
2023-02-09T03:45:14.746Z,-5.43
2023-02-09T03:46:14.765Z,-5.42
2023-02-09T03:47:14.758Z,-5.47
2023-02-09T03:48:14.718Z,-5.57
2023-02-09T03:49:14.726Z,-5.64
2023-02-09T03:50:14.690Z,-5.89
2023-02-09T03:51:14.701Z,-6.14
2023-02-09T03:52:14.705Z,-6.49
2023-02-09T03:53:14.664Z,-6.74
2023-02-09T03:54:14.675Z,-6.96
2023-02-09T03:55:14.633Z,-7.14
2023-02-09T03:56:14.624Z,-7.35
2023-02-09T03:57:14.653Z,-7.49
2023-02-09T03:58:14.625Z,-7.65
2023-02-09T03:59:14.595Z,-7.79
2023-02-09T04:00:14.579Z,-7.91
2023-02-09T04:01:14.634Z,-8.01
2023-02-09T04:02:14.715Z,-8.04
2023-02-09T04:03:14.566Z,-7.97
2023-02-09T04:04:14.561Z,-7.91
2023-02-09T04:05:14.521Z,-7.88
2023-02-09T04:06:14.519Z,-7.83
2023-02-09T04:07:14.512Z,-7.85
2023-02-09T04:08:14.525Z,-7.75
2023-02-09T04:09:14.494Z,-7.75
2023-02-09T04:10:14.458Z,-7.78
2023-02-09T04:11:14.465Z,-7.85
2023-02-09T04:12:14.448Z,-7.91
2023-02-09T04:13:14.488Z,-7.91
2023-02-09T04:14:14.440Z,-7.93
2023-02-09T04:15:14.416Z,-7.93
2023-02-09T04:16:14.414Z,-8.01
2023-02-09T04:17:14.402Z,-8.03
2023-02-09T04:18:14.420Z,-8.07
2023-02-09T04:19:14.380Z,-8.19
2023-02-09T04:20:14.368Z,-8.25
2023-02-09T04:21:14.372Z,-8.34
2023-02-09T04:22:14.335Z,-8.43
2023-02-09T04:23:14.366Z,-8.50
2023-02-09T04:24:14.305Z,-8.46
2023-02-09T04:25:14.323Z,-8.47
2023-02-09T04:26:14.302Z,-8.47
2023-02-09T04:27:14.300Z,-8.40
2023-02-09T04:28:14.353Z,-8.31
2023-02-09T04:29:14.283Z,-8.25
2023-02-09T04:30:14.243Z,-8.21
2023-02-09T04:31:14.453Z,-8.13
2023-02-09T04:32:14.258Z,-8.10
2023-02-09T04:33:14.255Z,-8.04
2023-02-09T04:34:14.206Z,-8.05
2023-02-09T04:35:14.195Z,-8.13
2023-02-09T04:36:14.178Z,-8.19
2023-02-09T04:37:14.185Z,-8.23
2023-02-09T04:38:14.214Z,-8.23
2023-02-09T04:39:14.181Z,-8.28
2023-02-09T04:40:14.145Z,-8.37
2023-02-09T04:41:14.138Z,-8.42
2023-02-09T04:42:14.123Z,-8.47
2023-02-09T04:43:14.144Z,-8.55
2023-02-09T04:44:14.129Z,-8.62
2023-02-09T04:45:14.119Z,-8.73
2023-02-09T04:46:14.244Z,-8.83
2023-02-09T04:47:14.082Z,-8.92
2023-02-09T04:48:14.093Z,-8.97
2023-02-09T04:49:14.070Z,-9.04
2023-02-09T04:50:14.038Z,-9.12
2023-02-09T04:51:14.044Z,-9.14
2023-02-09T04:52:14.033Z,-9.20
2023-02-09T04:53:14.055Z,-9.21
2023-02-09T04:54:13.996Z,-9.12
2023-02-09T04:55:13.984Z,-9.02
2023-02-09T04:56:15.105Z,-9.04
2023-02-09T04:57:13.982Z,-8.97
2023-02-09T04:58:15.727Z,-8.96
2023-02-09T04:59:13.996Z,-9.02
2023-02-09T05:00:13.934Z,-9.07
2023-02-09T05:01:13.981Z,-9.11
2023-02-09T05:02:13.943Z,-9.10
2023-02-09T05:03:13.929Z,-9.11
2023-02-09T05:04:13.948Z,-9.17
2023-02-09T05:05:13.886Z,-9.24
2023-02-09T05:06:13.886Z,-9.25
2023-02-09T05:07:13.880Z,-9.28
2023-02-09T05:08:13.870Z,-9.29
2023-02-09T05:09:13.922Z,-9.29
2023-02-09T05:10:13.846Z,-9.20
2023-02-09T05:11:13.811Z,-9.12
2023-02-09T05:12:13.797Z,-9.04
2023-02-09T05:13:13.794Z,-9.04
2023-02-09T05:14:13.870Z,-9.03
2023-02-09T05:15:13.776Z,-8.94
2023-02-09T05:16:13.808Z,-8.83
2023-02-09T05:17:13.770Z,-8.76
2023-02-09T05:18:13.740Z,-8.76
2023-02-09T05:19:13.804Z,-8.76
2023-02-09T05:20:13.753Z,-8.75
2023-02-09T05:21:13.719Z,-8.76
2023-02-09T05:22:13.697Z,-8.75
2023-02-09T05:23:13.755Z,-8.76
2023-02-09T05:24:13.731Z,-8.72
2023-02-09T05:25:13.681Z,-8.68
2023-02-09T05:26:14.478Z,-8.68
2023-02-09T05:27:13.649Z,-8.70
2023-02-09T05:28:13.733Z,-8.75
2023-02-09T05:29:13.670Z,-8.79
2023-02-09T05:30:13.641Z,-8.75
2023-02-09T05:31:13.625Z,-8.78
2023-02-09T05:32:13.671Z,-8.76
2023-02-09T05:33:13.612Z,-8.72
2023-02-09T05:34:13.655Z,-8.70
2023-02-09T05:35:13.566Z,-8.62
2023-02-09T05:36:13.569Z,-8.60
2023-02-09T05:37:13.550Z,-8.61
2023-02-09T05:38:13.559Z,-8.60
2023-02-09T05:39:13.626Z,-8.68
2023-02-09T05:40:13.976Z,-8.76
2023-02-09T05:41:13.510Z,-8.86
2023-02-09T05:42:13.511Z,-8.97
2023-02-09T05:43:13.515Z,-9.00
2023-02-09T05:44:13.507Z,-9.06
2023-02-09T05:45:13.528Z,-9.17
2023-02-09T05:46:13.521Z,-9.29
2023-02-09T05:47:13.441Z,-9.24
2023-02-09T05:48:13.454Z,-9.24
2023-02-09T05:49:13.422Z,-9.32
2023-02-09T05:50:13.453Z,-9.35
2023-02-09T05:51:13.413Z,-9.39
2023-02-09T05:52:13.403Z,-9.35
2023-02-09T05:53:15.218Z,-9.25
2023-02-09T05:54:13.354Z,-9.15
2023-02-09T05:55:13.387Z,-9.02
2023-02-09T05:56:13.342Z,-8.94
2023-02-09T05:57:13.357Z,-8.92
2023-02-09T05:58:13.314Z,-8.99
2023-02-09T05:59:13.334Z,-9.10
2023-02-09T06:00:13.360Z,-9.20
2023-02-09T06:01:13.309Z,-9.28
2023-02-09T06:02:13.339Z,-9.29
2023-02-09T06:03:13.306Z,-9.32
2023-02-09T06:04:13.270Z,-9.32
2023-02-09T06:05:13.305Z,-9.28
2023-02-09T06:06:13.237Z,-9.28
2023-02-09T06:07:13.241Z,-9.28
2023-02-09T06:08:13.231Z,-9.24
2023-02-09T06:09:13.212Z,-9.29
2023-02-09T06:10:13.288Z,-9.28
2023-02-09T06:11:13.205Z,-9.29
2023-02-09T06:12:13.167Z,-9.17
2023-02-09T06:13:13.150Z,-9.03
2023-02-09T06:14:13.166Z,-8.88
2023-02-09T06:15:13.231Z,-8.76
2023-02-09T06:16:13.151Z,-8.67
2023-02-09T06:17:13.111Z,-8.64
2023-02-09T06:18:13.126Z,-8.61
2023-02-09T06:19:13.095Z,-8.61
2023-02-09T06:20:13.136Z,-8.57
2023-02-09T06:21:13.091Z,-8.46
2023-02-09T06:22:13.080Z,-8.37
2023-02-09T06:23:13.075Z,-8.23
2023-02-09T06:24:13.035Z,-8.11
2023-02-09T06:25:13.078Z,-8.04
2023-02-09T06:26:13.054Z,-7.97
2023-02-09T06:27:13.038Z,-7.92
2023-02-09T06:28:13.102Z,-7.92
2023-02-09T06:29:13.009Z,-8.01
2023-02-09T06:30:13.043Z,-8.05
2023-02-09T06:31:13.048Z,-8.11
2023-02-09T06:32:13.097Z,-8.15
2023-02-09T06:33:12.968Z,-8.16
2023-02-09T06:34:12.937Z,-8.22
2023-02-09T06:35:12.979Z,-8.29
2023-02-09T06:36:12.937Z,-8.32
2023-02-09T06:37:12.912Z,-8.32
2023-02-09T06:38:12.905Z,-8.37
2023-02-09T06:39:12.890Z,-8.32
2023-02-09T06:40:12.925Z,-8.25
2023-02-09T06:41:12.896Z,-8.15
2023-02-09T06:42:12.866Z,-8.08
2023-02-09T06:43:12.842Z,-8.08
2023-02-09T06:44:12.818Z,-8.15
2023-02-09T06:45:12.893Z,-8.22
2023-02-09T06:46:12.895Z,-8.22
2023-02-09T06:47:12.825Z,-8.29
2023-02-09T06:48:12.846Z,-8.32
2023-02-09T06:49:12.795Z,-8.32
2023-02-09T06:50:12.817Z,-8.36
2023-02-09T06:51:12.809Z,-8.36
2023-02-09T06:52:12.734Z,-8.36
2023-02-09T06:53:12.751Z,-8.34
2023-02-09T06:54:12.722Z,-8.36
2023-02-09T06:55:12.749Z,-8.32
2023-02-09T06:56:12.693Z,-8.26
2023-02-09T06:57:12.724Z,-8.18
2023-02-09T06:58:12.680Z,-8.07
2023-02-09T06:59:12.664Z,-7.96
2023-02-09T07:00:12.729Z,-7.83
2023-02-09T07:01:12.686Z,-7.75
2023-02-09T07:02:12.631Z,-7.65
2023-02-09T07:03:12.610Z,-7.50
2023-02-09T07:04:12.634Z,-7.29
2023-02-09T07:05:12.660Z,-7.11
2023-02-09T07:06:12.622Z,-6.89
2023-02-09T07:07:12.650Z,-6.68
2023-02-09T07:08:12.589Z,-6.44
2023-02-09T07:09:12.558Z,-6.24
2023-02-09T07:10:12.621Z,-6.14
2023-02-09T07:11:12.524Z,-6.07
2023-02-09T07:12:12.517Z,-5.84
2023-02-09T07:13:12.515Z,-5.75
2023-02-09T07:14:12.519Z,-5.46
2023-02-09T07:15:12.512Z,-5.13
2023-02-09T07:16:12.549Z,-4.73
2023-02-09T07:17:12.486Z,-4.43
2023-02-09T07:18:12.476Z,-4.02
2023-02-09T07:19:12.449Z,-3.59
2023-02-09T07:20:12.453Z,-3.10
2023-02-09T07:21:12.459Z,-2.71
2023-02-09T07:22:12.461Z,-2.35
2023-02-09T07:23:12.487Z,-2.25
2023-02-09T07:24:12.407Z,-2.01
2023-02-09T07:25:12.397Z,-1.83
2023-02-09T07:26:12.420Z,-1.38
2023-02-09T07:27:12.365Z,-1.01
2023-02-09T07:28:12.437Z,-0.64
2023-02-09T07:29:12.994Z,-0.36
2023-02-09T07:30:12.357Z,-0.13
2023-02-09T07:31:12.485Z,0.00
2023-02-09T07:32:12.339Z,0.29
2023-02-09T07:33:12.317Z,0.34
2023-02-09T07:34:12.323Z,0.46
2023-02-09T07:35:12.298Z,0.68
2023-02-09T07:36:12.327Z,0.91
2023-02-09T07:37:12.283Z,1.13
2023-02-09T07:38:12.267Z,1.35
2023-02-09T07:39:12.237Z,1.40
2023-02-09T07:40:12.219Z,1.59
2023-02-09T07:41:12.249Z,1.35
2023-02-09T07:42:12.198Z,1.42
2023-02-09T07:43:12.188Z,1.63
2023-02-09T07:44:12.203Z,1.92
2023-02-09T07:45:12.178Z,2.13
2023-02-09T07:46:12.238Z,2.36
2023-02-09T07:47:12.172Z,2.60
2023-02-09T07:48:12.175Z,2.77
2023-02-09T07:49:12.153Z,2.62
2023-02-09T07:50:12.130Z,2.86
2023-02-09T07:51:12.177Z,3.14
2023-02-09T07:52:12.086Z,3.36
2023-02-09T07:53:12.108Z,3.37
2023-02-09T07:54:12.100Z,3.53
2023-02-09T07:55:12.074Z,3.50
2023-02-09T07:56:12.119Z,3.48
2023-02-09T07:57:12.059Z,3.08
2023-02-09T07:58:12.020Z,2.18
2023-02-09T07:59:12.037Z,1.80
2023-02-09T08:00:12.009Z,1.88
2023-02-09T08:01:12.028Z,2.22
2023-02-09T08:02:12.084Z,2.11
2023-02-09T08:03:11.980Z,2.43
2023-02-09T08:04:11.970Z,2.62
2023-02-09T08:05:11.975Z,2.71
2023-02-09T08:06:11.974Z,3.13
2023-02-09T08:07:11.915Z,2.95
2023-02-09T08:08:11.923Z,2.57
2023-02-09T08:09:11.912Z,2.43
2023-02-09T08:10:11.874Z,2.36
2023-02-09T08:11:11.955Z,2.79
2023-02-09T08:12:11.918Z,3.00
2023-02-09T08:13:11.863Z,3.13
2023-02-09T08:14:11.853Z,3.29
2023-02-09T08:15:11.820Z,3.00
2023-02-09T08:16:11.910Z,3.36
2023-02-09T08:17:11.814Z,3.23
2023-02-09T08:18:13.114Z,3.14
2023-02-09T08:19:11.805Z,3.04
2023-02-09T08:20:11.775Z,3.13
2023-02-09T08:21:11.808Z,3.14
2023-02-09T08:22:11.760Z,3.19
2023-02-09T08:23:11.785Z,2.97
2023-02-09T08:24:11.737Z,2.90
2023-02-09T08:25:11.720Z,3.16
2023-02-09T08:26:11.760Z,3.14
2023-02-09T08:27:11.717Z,2.98
2023-02-09T08:28:11.737Z,2.83
2023-02-09T08:29:11.684Z,3.25
2023-02-09T08:30:11.684Z,3.51
2023-02-09T08:31:11.806Z,3.62
2023-02-09T08:32:11.732Z,3.73
2023-02-09T08:33:11.666Z,3.66
2023-02-09T08:34:11.626Z,3.77
2023-02-09T08:35:11.621Z,3.68
2023-02-09T08:36:11.672Z,3.58
2023-02-09T08:37:11.578Z,3.32
2023-02-09T08:38:11.578Z,3.62
2023-02-09T08:39:11.567Z,3.62
2023-02-09T08:40:11.581Z,3.62
2023-02-09T08:41:11.606Z,3.94
2023-02-09T08:42:11.545Z,3.98
2023-02-09T08:43:11.521Z,3.94
2023-02-09T08:44:11.537Z,3.77
2023-02-09T08:45:11.504Z,3.69
2023-02-09T08:46:11.701Z,3.99
2023-02-09T08:47:11.507Z,4.02
2023-02-09T08:48:11.481Z,3.86
2023-02-09T08:49:11.479Z,3.42
2023-02-09T08:50:11.443Z,3.32
2023-02-09T08:51:11.487Z,3.44
2023-02-09T08:52:11.440Z,3.29
2023-02-09T08:53:11.424Z,3.32
2023-02-09T08:54:11.434Z,3.03
2023-02-09T08:55:11.406Z,3.04
2023-02-09T08:56:11.477Z,3.23
2023-02-09T08:57:11.368Z,3.07
2023-02-09T08:58:11.368Z,2.97
2023-02-09T08:59:11.348Z,3.13
2023-02-09T09:00:11.322Z,3.11
2023-02-09T09:01:11.394Z,3.05
2023-02-09T09:02:11.354Z,3.07
2023-02-09T09:03:11.334Z,3.13
2023-02-09T09:04:11.317Z,3.16
2023-02-09T09:05:11.292Z,3.23
2023-02-09T09:06:11.306Z,3.11
2023-02-09T09:07:11.247Z,3.32
2023-02-09T09:08:11.257Z,3.44
2023-02-09T09:09:11.259Z,3.63
2023-02-09T09:10:11.250Z,3.66
2023-02-09T09:11:11.266Z,3.60
2023-02-09T09:12:11.220Z,3.50
2023-02-09T09:13:11.193Z,3.05
2023-02-09T09:14:11.201Z,3.01
2023-02-09T09:15:11.144Z,3.01
2023-02-09T09:16:11.216Z,3.13
2023-02-09T09:17:11.157Z,3.51
2023-02-09T09:18:11.142Z,3.59
2023-02-09T09:19:11.139Z,3.41
2023-02-09T09:20:11.125Z,3.32
2023-02-09T09:21:12.298Z,3.48
2023-02-09T09:22:11.095Z,3.29
2023-02-09T09:23:11.078Z,3.21
2023-02-09T09:24:11.087Z,3.04
2023-02-09T09:25:11.067Z,2.82
2023-02-09T09:26:11.111Z,2.79
2023-02-09T09:27:11.045Z,3.01
2023-02-09T09:28:11.133Z,3.14
2023-02-09T09:29:11.022Z,2.87
2023-02-09T09:30:10.995Z,2.82
2023-02-09T09:31:11.100Z,2.83
2023-02-09T09:32:11.073Z,2.61
2023-02-09T09:33:11.015Z,2.61
2023-02-09T09:34:10.962Z,2.77
2023-02-09T09:35:10.946Z,2.69
2023-02-09T09:36:10.974Z,2.71
2023-02-09T09:37:10.900Z,2.71
2023-02-09T09:38:10.892Z,2.82
2023-02-09T09:39:10.915Z,2.90
2023-02-09T09:40:10.878Z,2.80
2023-02-09T09:41:10.908Z,2.95
2023-02-09T09:42:10.885Z,3.03
2023-02-09T09:43:10.883Z,3.11
2023-02-09T09:44:10.850Z,3.16
2023-02-09T09:45:10.825Z,3.13
2023-02-09T09:46:10.876Z,3.04
2023-02-09T09:47:10.800Z,2.92
2023-02-09T09:48:10.850Z,3.00
2023-02-09T09:49:10.786Z,2.92
2023-02-09T09:50:10.796Z,2.83
2023-02-09T09:51:10.825Z,2.92
2023-02-09T09:52:10.778Z,2.97
2023-02-09T09:53:10.750Z,3.04
2023-02-09T09:54:10.732Z,3.23
2023-02-09T09:55:10.709Z,3.41
2023-02-09T09:56:10.773Z,3.60
2023-02-09T09:57:10.714Z,3.56
2023-02-09T09:58:10.706Z,3.65
2023-02-09T09:59:10.689Z,3.78
2023-02-09T10:00:10.652Z,3.58
2023-02-09T10:01:10.754Z,3.44
2023-02-09T10:02:12.062Z,3.53
2023-02-09T10:03:10.626Z,3.60
2023-02-09T10:04:10.654Z,3.65
2023-02-09T10:05:10.604Z,3.95
2023-02-09T10:06:10.631Z,3.78
2023-02-09T10:07:10.592Z,3.73
2023-02-09T10:08:10.576Z,3.51
2023-02-09T10:09:10.575Z,3.78
2023-02-09T10:10:10.548Z,3.73
2023-02-09T10:11:10.598Z,3.55
2023-02-09T10:12:10.523Z,3.36
2023-02-09T10:13:10.533Z,3.23
2023-02-09T10:14:10.504Z,3.21
2023-02-09T10:15:10.470Z,3.59
2023-02-09T10:16:10.528Z,3.99
2023-02-09T10:17:10.525Z,4.28
2023-02-09T10:18:10.460Z,4.16
2023-02-09T10:19:10.465Z,3.69
2023-02-09T10:20:10.447Z,3.58
2023-02-09T10:21:10.441Z,3.62
2023-02-09T10:22:10.448Z,3.55
2023-02-09T10:23:10.405Z,3.66
2023-02-09T10:24:10.414Z,3.70
2023-02-09T10:25:10.385Z,3.65
2023-02-09T10:26:10.421Z,3.70
2023-02-09T10:27:10.381Z,3.78
2023-02-09T10:28:10.397Z,3.94
2023-02-09T10:29:10.345Z,4.04
2023-02-09T10:30:10.349Z,3.80
2023-02-09T10:31:10.518Z,3.78
2023-02-09T10:32:10.362Z,3.94
2023-02-09T10:33:10.273Z,4.02
2023-02-09T10:34:10.280Z,4.02
2023-02-09T10:35:10.240Z,4.19
2023-02-09T10:36:10.311Z,4.19
2023-02-09T10:37:10.245Z,4.26
2023-02-09T10:38:10.242Z,4.35
2023-02-09T10:39:10.219Z,4.56
2023-02-09T10:40:10.219Z,4.68
2023-02-09T10:41:10.274Z,4.87
2023-02-09T10:42:10.191Z,4.41
2023-02-09T10:43:10.174Z,4.45
2023-02-09T10:44:10.167Z,4.48
2023-02-09T10:45:10.150Z,4.68
2023-02-09T10:46:10.223Z,4.99
2023-02-09T10:47:10.151Z,5.05
2023-02-09T10:48:10.127Z,4.77
2023-02-09T10:49:10.142Z,4.77
2023-02-09T10:50:10.109Z,4.90
2023-02-09T10:51:10.122Z,4.82
2023-02-09T10:52:10.098Z,4.63
2023-02-09T10:53:10.062Z,4.67
2023-02-09T10:54:10.070Z,4.55
2023-02-09T10:55:10.043Z,4.40
2023-02-09T10:56:10.080Z,4.48
2023-02-09T10:57:10.024Z,4.44
2023-02-09T10:58:10.036Z,4.53
2023-02-09T10:59:10.004Z,4.70
2023-02-09T11:00:10.010Z,4.66
2023-02-09T11:01:10.113Z,4.90
2023-02-09T11:02:09.965Z,5.02
2023-02-09T11:03:09.944Z,4.80
2023-02-09T11:04:09.973Z,4.82
2023-02-09T11:05:09.922Z,5.41
2023-02-09T11:06:09.983Z,5.71
2023-02-09T11:07:09.911Z,6.05
2023-02-09T11:08:09.923Z,6.14
2023-02-09T11:09:09.874Z,6.38
2023-02-09T11:10:12.482Z,6.48
2023-02-09T11:11:09.891Z,6.48
2023-02-09T11:12:09.868Z,6.60
2023-02-09T11:13:09.855Z,6.63
2023-02-09T11:14:09.841Z,6.99
2023-02-09T11:15:09.827Z,7.31
2023-02-09T11:16:09.902Z,7.33
2023-02-09T11:17:09.856Z,6.87
2023-02-09T11:18:09.807Z,6.89
2023-02-09T11:19:11.273Z,6.87
2023-02-09T11:20:09.775Z,6.89
2023-02-09T11:21:09.784Z,7.33
2023-02-09T11:22:09.756Z,7.50
2023-02-09T11:23:09.772Z,6.93
2023-02-09T11:24:09.728Z,7.47
2023-02-09T11:25:09.698Z,7.87
2023-02-09T11:26:09.741Z,8.00
2023-02-09T11:27:09.695Z,7.85
2023-02-09T11:28:09.732Z,7.50
2023-02-09T11:29:09.688Z,7.36
2023-02-09T11:30:09.674Z,7.51
2023-02-09T11:31:09.787Z,7.51
2023-02-09T11:32:09.668Z,7.45
2023-02-09T11:33:09.630Z,7.56
2023-02-09T11:34:09.604Z,7.20
2023-02-09T11:35:09.631Z,7.13
2023-02-09T11:36:09.598Z,7.25
2023-02-09T11:37:09.623Z,7.07
2023-02-09T11:38:09.566Z,6.96
2023-02-09T11:39:09.551Z,7.28
2023-02-09T11:40:09.556Z,6.99
2023-02-09T11:41:09.567Z,7.25
2023-02-09T11:42:09.587Z,7.70
2023-02-09T11:43:09.546Z,7.82
2023-02-09T11:44:11.460Z,8.12
2023-02-09T11:45:09.490Z,8.31
2023-02-09T11:46:09.511Z,7.94
2023-02-09T11:47:09.514Z,8.24
2023-02-09T11:48:09.474Z,8.44
2023-02-09T11:49:09.456Z,8.42
2023-02-09T11:50:09.417Z,7.83
2023-02-09T11:51:09.434Z,7.76
2023-02-09T11:52:09.480Z,8.30
2023-02-09T11:53:09.411Z,7.72
2023-02-09T11:54:09.409Z,7.61
2023-02-09T11:55:09.368Z,8.18
2023-02-09T11:56:09.365Z,8.28
2023-02-09T11:57:09.404Z,7.75
2023-02-09T11:58:09.361Z,7.51
2023-02-09T11:59:09.337Z,8.09
2023-02-09T12:00:09.329Z,8.41
2023-02-09T12:01:15.598Z,8.63
2023-02-09T12:02:10.335Z,8.36
2023-02-09T12:03:09.353Z,8.09
2023-02-09T12:04:09.292Z,7.91
2023-02-09T12:05:09.270Z,8.15
2023-02-09T12:06:09.296Z,8.03
2023-02-09T12:07:09.298Z,7.66
2023-02-09T12:08:09.252Z,7.79
2023-02-09T12:09:09.236Z,8.16
2023-02-09T12:10:09.180Z,8.60
2023-02-09T12:11:09.228Z,8.76
2023-02-09T12:12:09.253Z,8.71
2023-02-09T12:13:09.199Z,8.18
2023-02-09T12:14:09.186Z,8.16
2023-02-09T12:15:09.146Z,8.03
2023-02-09T12:16:09.167Z,8.45
2023-02-09T12:17:09.180Z,8.38
2023-02-09T12:18:09.149Z,8.37
2023-02-09T12:19:09.099Z,8.71
2023-02-09T12:20:09.123Z,8.88
2023-02-09T12:21:09.106Z,8.44
2023-02-09T12:22:09.067Z,8.27
2023-02-09T12:23:09.106Z,8.30
2023-02-09T12:24:09.060Z,8.31
2023-02-09T12:25:09.052Z,8.15
2023-02-09T12:26:09.016Z,8.24
2023-02-09T12:27:09.025Z,7.85
2023-02-09T12:28:09.132Z,7.93
2023-02-09T12:29:09.019Z,8.18
2023-02-09T12:30:08.961Z,8.28
2023-02-09T12:31:09.093Z,8.49
2023-02-09T12:32:09.012Z,9.02
2023-02-09T12:33:08.992Z,8.41
2023-02-09T12:34:08.937Z,7.58
2023-02-09T12:35:08.939Z,7.69
2023-02-09T12:36:08.938Z,8.12
2023-02-09T12:37:08.904Z,8.26
2023-02-09T12:38:08.928Z,8.16
2023-02-09T12:39:08.894Z,8.24
2023-02-09T12:40:08.887Z,8.06
2023-02-09T12:41:08.945Z,7.73
2023-02-09T12:42:08.873Z,7.88
2023-02-09T12:43:08.860Z,8.18
2023-02-09T12:44:08.804Z,8.74
2023-02-09T12:45:08.807Z,8.79
2023-02-09T12:46:08.924Z,9.04
2023-02-09T12:47:08.814Z,9.21
2023-02-09T12:48:08.828Z,9.13
2023-02-09T12:49:08.781Z,8.88
2023-02-09T12:50:08.740Z,8.71
2023-02-09T12:51:08.734Z,8.99
2023-02-09T12:52:09.607Z,8.95
2023-02-09T12:53:08.761Z,8.61
2023-02-09T12:54:08.718Z,8.48
2023-02-09T12:55:08.701Z,9.18
2023-02-09T12:56:08.671Z,9.65
2023-02-09T12:57:08.683Z,9.50
2023-02-09T12:58:08.695Z,8.79
2023-02-09T12:59:08.644Z,8.76
2023-02-09T13:00:08.631Z,8.38
2023-02-09T13:01:08.771Z,8.53
2023-02-09T13:02:08.598Z,8.69
2023-02-09T13:03:08.680Z,8.84